Time;durP1;ratioP1;P1;durP2;ratioP2;P2;SDS_P1;SDS_P2;PMS_P1;PMS_P2;Temp;Humidity;BMP_temperature;BMP_pressure;BME280_temperature;BME280_humidity;BME280_pressure;Samples;Min_cycle;Max_cycle;Signal;HPM_P1;HPM_P2
2021/12/21 00:00:31;;;;;;;8.23;3.03;;;;;;;;;;4952147;28;20439;-67
2021/12/21 00:02:57;;;;;;;7.60;3.28;;;;;;;;;;4951947;28;20487;-68
2021/12/21 00:05:27;;;;;;;12.55;4.10;;;;;;;;;;4952251;28;20372;-69
2021/12/21 00:07:53;;;;;;;9.88;4.03;;;;;;;;;;4966246;28;20097;-67
2021/12/21 00:10:21;;;;;;;8.68;3.78;;;;;;;;;;4951781;28;20420;-67
2021/12/21 00:13:08;;;;;;;9.30;4.25;;;;;;;;;;4966168;28;20044;-67
2021/12/21 00:16:05;;;;;;;7.18;3.15;;;;;;;;;;4963850;28;20463;-67
2021/12/21 00:18:36;;;;;;;7.88;3.50;;;;;;;;;;4951535;28;20195;-67
2021/12/21 00:23:35;;;;;;;7.78;3.60;;;;;;;;;;4965769;28;20037;-69
2021/12/21 00:26:10;;;;;;;9.60;4.10;;;;;;;;;;4966205;28;20443;-67
2021/12/21 00:28:45;;;;;;;10.60;3.72;;;;;;;;;;4965986;28;20488;-68
2021/12/21 00:31:11;;;;;;;9.80;3.72;;;;;;;;;;4951668;28;20365;-67
2021/12/21 00:33:39;;;;;;;8.50;3.42;;;;;;;;;;4951090;28;20418;-69
2021/12/21 00:36:05;;;;;;;11.50;3.93;;;;;;;;;;4951636;28;20089;-68
2021/12/21 00:38:31;;;;;;;7.78;3.75;;;;;;;;;;4934030;28;20804;-67
2021/12/21 00:40:56;;;;;;;6.53;3.55;;;;;;;;;;4950806;28;20392;-67
2021/12/21 00:43:21;;;;;;;9.25;3.63;;;;;;;;;;4951098;28;20516;-72
2021/12/21 00:45:47;;;;;;;9.50;4.05;;;;;;;;;;4950428;28;20412;-67
2021/12/21 00:48:14;;;;;;;12.52;4.70;;;;;;;;;;4951527;28;20389;-68
2021/12/21 00:50:39;;;;;;;8.13;3.65;;;;;;;;;;4951095;28;20361;-67
2021/12/21 00:53:05;;;;;;;9.52;3.20;;;;;;;;;;4950892;28;20052;-67
2021/12/21 00:55:30;;;;;;;7.57;3.30;;;;;;;;;;4966280;28;20427;-67
2021/12/21 00:57:56;;;;;;;9.82;4.03;;;;;;;;;;4951285;28;20052;-70
2021/12/21 01:00:22;;;;;;;7.30;3.50;;;;;;;;;;4950121;28;20404;-67
2021/12/21 01:02:47;;;;;;;7.85;3.55;;;;;;;;;;4959007;28;20395;-67
2021/12/21 01:05:23;;;;;;;8.35;4.38;;;;;;;;;;4952292;28;20298;-67
2021/12/21 01:07:51;;;;;;;8.02;3.75;;;;;;;;;;4951427;28;20639;-67
2021/12/21 01:18:03;;;;;;;10.02;3.55;;;;;;;;;;4933248;28;20455;-67
2021/12/21 01:20:34;;;;;;;10.63;3.75;;;;;;;;;;4950364;28;20117;-67
2021/12/21 01:28:21;;;;;;;8.68;3.92;;;;;;;;;;4950543;28;20030;-67
2021/12/21 01:31:05;;;;;;;11.32;3.60;;;;;;;;;;4951604;28;20457;-67
2021/12/21 01:33:53;;;;;;;8.05;4.13;;;;;;;;;;4950020;28;20423;-67
2021/12/21 01:36:27;;;;;;;7.47;3.33;;;;;;;;;;4950136;28;20528;-67
2021/12/21 01:39:01;;;;;;;7.05;3.00;;;;;;;;;;4950403;28;20449;-68
2021/12/21 01:44:36;;;;;;;8.25;3.40;;;;;;;;;;4930548;28;20439;-68
2021/12/21 01:49:49;;;;;;;10.10;3.53;;;;;;;;;;4950249;28;20061;-67
2021/12/21 01:52:18;;;;;;;7.65;3.70;;;;;;;;;;4964309;28;20383;-67
2021/12/21 01:54:44;;;;;;;10.38;3.92;;;;;;;;;;4949858;28;20425;-67
2021/12/21 01:57:10;;;;;;;7.68;3.22;;;;;;;;;;4950118;28;20387;-67
2021/12/21 01:59:37;;;;;;;6.00;2.88;;;;;;;;;;4949520;28;20416;-67
2021/12/21 02:02:03;;;;;;;8.68;4.03;;;;;;;;;;4964921;28;20516;-68
2021/12/21 02:04:28;;;;;;;5.93;2.75;;;;;;;;;;4949294;28;20029;-67
2021/12/21 02:06:54;;;;;;;8.30;3.08;;;;;;;;;;4949727;28;20060;-67
2021/12/21 02:09:21;;;;;;;7.93;3.47;;;;;;;;;;4949192;28;20552;-68
2021/12/21 02:11:47;;;;;;;6.65;3.13;;;;;;;;;;4950074;28;20485;-70
2021/12/21 02:14:13;;;;;;;11.68;4.05;;;;;;;;;;4951034;28;20503;-67
2021/12/21 02:16:52;;;;;;;7.95;3.22;;;;;;;;;;4949616;28;20416;-67
2021/12/21 02:19:31;;;;;;;7.88;3.28;;;;;;;;;;4963207;28;20506;-68
2021/12/21 02:22:06;;;;;;;10.48;3.13;;;;;;;;;;4963736;28;20030;-67
2021/12/21 02:24:40;;;;;;;8.88;3.08;;;;;;;;;;4949636;28;20376;-68
2021/12/21 02:27:18;;;;;;;5.60;3.15;;;;;;;;;;4950194;28;20444;-68
2021/12/21 02:29:43;;;;;;;8.27;3.10;;;;;;;;;;4963204;28;20451;-67
2021/12/21 02:32:12;;;;;;;9.02;3.50;;;;;;;;;;4949741;28;20429;-68
2021/12/21 02:34:38;;;;;;;11.60;3.78;;;;;;;;;;4949480;28;20411;-67
2021/12/21 02:37:03;;;;;;;5.38;2.72;;;;;;;;;;4949528;28;20052;-67
2021/12/21 02:39:28;;;;;;;9.65;3.22;;;;;;;;;;4949345;28;20052;-68
2021/12/21 02:41:54;;;;;;;7.30;3.40;;;;;;;;;;4949622;28;20038;-67
2021/12/21 02:44:19;;;;;;;6.85;2.78;;;;;;;;;;4948908;28;20365;-67
2021/12/21 02:46:45;;;;;;;6.40;3.00;;;;;;;;;;4964445;28;20451;-68
2021/12/21 02:49:11;;;;;;;10.40;3.10;;;;;;;;;;4964314;28;20393;-67
2021/12/21 02:51:39;;;;;;;9.63;3.15;;;;;;;;;;4949090;28;20426;-67
2021/12/21 02:54:04;;;;;;;6.65;3.42;;;;;;;;;;4949483;28;20475;-68
2021/12/21 02:56:29;;;;;;;6.03;3.85;;;;;;;;;;4948912;28;20416;-67
2021/12/21 02:58:55;;;;;;;7.65;3.55;;;;;;;;;;4964308;28;20401;-67
2021/12/21 03:01:20;;;;;;;8.13;2.72;;;;;;;;;;4949079;28;20026;-68
2021/12/21 03:03:45;;;;;;;9.40;3.88;;;;;;;;;;4949465;28;20535;-67
2021/12/21 03:06:44;;;;;;;7.07;3.15;;;;;;;;;;4948912;28;20099;-68
2021/12/21 03:08:57;;;;;;;7.25;3.45;;;;;;;;;;4934859;28;20353;-68
2021/12/21 03:11:47;;;;;;;7.35;3.45;;;;;;;;;;4950267;28;20334;-68
2021/12/21 03:14:11;;;;;;;6.78;3.22;;;;;;;;;;4961433;28;20475;-67
2021/12/21 03:16:38;;;;;;;8.07;3.30;;;;;;;;;;4949075;28;20072;-67
2021/12/21 03:19:09;;;;;;;7.65;3.28;;;;;;;;;;4931683;28;20348;-68
2021/12/21 03:21:35;;;;;;;6.95;2.88;;;;;;;;;;4933950;28;20044;-67
2021/12/21 03:24:01;;;;;;;5.60;2.83;;;;;;;;;;4952199;28;20381;-67
2021/12/21 03:26:27;;;;;;;7.85;3.33;;;;;;;;;;4952429;28;20052;-67
2021/12/21 03:28:53;;;;;;;7.95;2.85;;;;;;;;;;4952544;28;20429;-69
2021/12/21 03:31:19;;;;;;;6.53;3.22;;;;;;;;;;4967626;28;20433;-67
2021/12/21 03:33:44;;;;;;;7.45;3.40;;;;;;;;;;4952471;28;20417;-68
2021/12/21 03:36:10;;;;;;;10.60;3.80;;;;;;;;;;4934513;28;20349;-67
2021/12/21 03:38:37;;;;;;;8.43;3.10;;;;;;;;;;4952762;28;20604;-67
2021/12/21 03:41:07;;;;;;;10.00;3.45;;;;;;;;;;4952365;28;20445;-67
2021/12/21 03:43:33;;;;;;;9.00;3.20;;;;;;;;;;4952332;28;20416;-67
2021/12/21 03:46:07;;;;;;;6.50;2.55;;;;;;;;;;4930896;28;20349;-67
2021/12/21 03:48:33;;;;;;;7.45;3.42;;;;;;;;;;4932660;28;20022;-69
2021/12/21 03:50:59;;;;;;;5.13;2.80;;;;;;;;;;4934368;28;20410;-67
2021/12/21 03:53:24;;;;;;;6.72;2.92;;;;;;;;;;4933239;28;20441;-67
2021/12/21 03:55:59;;;;;;;6.50;3.22;;;;;;;;;;4932452;28;20441;-68
2021/12/21 03:58:24;;;;;;;6.20;3.05;;;;;;;;;;4933213;28;20362;-68
2021/12/21 04:00:49;;;;;;;6.72;2.97;;;;;;;;;;4963545;28;20023;-70
2021/12/21 04:03:15;;;;;;;7.05;2.90;;;;;;;;;;4932302;28;20458;-67
2021/12/21 04:05:40;;;;;;;6.03;2.67;;;;;;;;;;4932318;28;20437;-68
2021/12/21 04:08:05;;;;;;;7.13;2.28;;;;;;;;;;4933185;28;20329;-67
2021/12/21 04:10:31;;;;;;;7.15;2.65;;;;;;;;;;4932415;28;20450;-67
2021/12/21 04:12:56;;;;;;;7.22;3.10;;;;;;;;;;4932570;28;20315;-67
2021/12/21 04:15:24;;;;;;;5.05;2.70;;;;;;;;;;4930596;28;20535;-67
2021/12/21 04:17:49;;;;;;;6.53;2.90;;;;;;;;;;4932077;28;20437;-67
2021/12/21 04:20:14;;;;;;;9.50;3.17;;;;;;;;;;4963053;28;20416;-67
2021/12/21 04:22:40;;;;;;;8.10;3.17;;;;;;;;;;4933059;28;20048;-67
2021/12/21 04:25:06;;;;;;;4.85;2.58;;;;;;;;;;4932533;28;20669;-68
2021/12/21 04:27:31;;;;;;;5.53;2.75;;;;;;;;;;4963934;28;20389;-67
2021/12/21 04:29:56;;;;;;;9.48;3.28;;;;;;;;;;4963156;28;20365;-68
2021/12/21 04:32:22;;;;;;;9.85;3.13;;;;;;;;;;4946154;28;20086;-69
2021/12/21 04:34:47;;;;;;;10.18;2.78;;;;;;;;;;4932162;28;20315;-67
2021/12/21 04:37:15;;;;;;;9.20;3.65;;;;;;;;;;4933290;28;20114;-68
2021/12/21 04:40:02;;;;;;;7.45;2.78;;;;;;;;;;4932107;28;20457;-67
2021/12/21 04:42:28;;;;;;;10.10;3.13;;;;;;;;;;4931364;28;20022;-67
2021/12/21 04:44:54;;;;;;;12.10;3.17;;;;;;;;;;4962865;28;20151;-68
2021/12/21 04:47:19;;;;;;;8.93;2.95;;;;;;;;;;4931316;28;20457;-68
2021/12/21 04:49:44;;;;;;;11.48;3.75;;;;;;;;;;4946487;28;20026;-67
2021/12/21 04:52:10;;;;;;;5.57;2.67;;;;;;;;;;4962569;28;20451;-67
2021/12/21 04:54:36;;;;;;;4.82;2.58;;;;;;;;;;4963093;28;20300;-68
2021/12/21 04:57:02;;;;;;;8.95;3.85;;;;;;;;;;4931561;28;20369;-68
2021/12/21 04:59:27;;;;;;;6.18;3.10;;;;;;;;;;4962851;28;20315;-67
2021/12/21 05:01:53;;;;;;;10.30;3.38;;;;;;;;;;4931395;28;20054;-67
2021/12/21 05:04:19;;;;;;;13.13;3.22;;;;;;;;;;4945921;28;20377;-67
2021/12/21 05:06:44;;;;;;;5.25;2.17;;;;;;;;;;4930911;28;20301;-67
2021/12/21 05:09:14;;;;;;;6.70;3.70;;;;;;;;;;4932157;28;20034;-67
2021/12/21 05:11:42;;;;;;;6.70;2.95;;;;;;;;;;4931232;28;20030;-68
2021/12/21 05:14:09;;;;;;;10.40;4.18;;;;;;;;;;4931279;28;20431;-67
2021/12/21 05:16:34;;;;;;;8.90;3.03;;;;;;;;;;4931063;28;20353;-67
2021/12/21 05:19:00;;;;;;;5.50;3.10;;;;;;;;;;4962307;28;20427;-68
2021/12/21 05:21:25;;;;;;;10.45;3.63;;;;;;;;;;4962009;28;20345;-67
2021/12/21 05:23:51;;;;;;;6.13;2.63;;;;;;;;;;4932474;28;20026;-68
2021/12/21 05:26:16;;;;;;;9.18;2.78;;;;;;;;;;4930965;28;20042;-67
2021/12/21 05:28:41;;;;;;;5.72;2.90;;;;;;;;;;4932434;28;20381;-68
2021/12/21 05:31:07;;;;;;;5.70;2.55;;;;;;;;;;4931919;28;20114;-67
2021/12/21 05:33:32;;;;;;;5.45;2.38;;;;;;;;;;4930422;28;20449;-67
2021/12/21 05:35:57;;;;;;;6.95;2.63;;;;;;;;;;4930921;28;20465;-68
2021/12/21 05:38:30;;;;;;;6.80;3.10;;;;;;;;;;4931509;28;20378;-67
2021/12/21 05:40:58;;;;;;;4.25;2.17;;;;;;;;;;4930934;28;20381;-67
2021/12/21 05:43:23;;;;;;;9.10;2.78;;;;;;;;;;4930964;28;20465;-67
2021/12/21 05:45:49;;;;;;;6.00;2.65;;;;;;;;;;4945429;28;20449;-67
2021/12/21 05:48:14;;;;;;;6.85;2.67;;;;;;;;;;4964618;28;20021;-67
2021/12/21 05:50:39;;;;;;;5.60;3.08;;;;;;;;;;4950873;28;20338;-67
2021/12/21 05:53:05;;;;;;;3.70;1.98;;;;;;;;;;4949750;28;20388;-70
2021/12/21 05:55:30;;;;;;;5.50;2.42;;;;;;;;;;4950413;28;20690;-67
2021/12/21 05:57:56;;;;;;;4.82;2.28;;;;;;;;;;4965027;28;20456;-68
2021/12/21 06:00:30;;;;;;;7.07;3.00;;;;;;;;;;4949948;28;20412;-67
2021/12/21 06:02:58;;;;;;;5.10;1.98;;;;;;;;;;4964414;28;20425;-68
2021/12/21 06:05:23;;;;;;;4.57;2.47;;;;;;;;;;4932619;28;20524;-67
2021/12/21 06:07:52;;;;;;;7.28;2.65;;;;;;;;;;4932500;28;20418;-67
2021/12/21 06:10:24;;;;;;;5.07;2.37;;;;;;;;;;4964012;28;20516;-67
2021/12/21 06:15:24;;;;;;;7.18;2.78;;;;;;;;;;4951006;28;20176;-67
2021/12/21 06:26:08;;;;;;;4.65;2.13;;;;;;;;;;4949511;28;20503;-67
2021/12/21 06:28:33;;;;;;;4.90;1.90;;;;;;;;;;4950224;28;20321;-69
2021/12/21 06:30:59;;;;;;;6.05;2.97;;;;;;;;;;4949588;28;20033;-67
2021/12/21 06:33:24;;;;;;;5.57;2.58;;;;;;;;;;4943410;28;20182;-67
2021/12/21 06:35:50;;;;;;;7.13;3.08;;;;;;;;;;4969049;28;20413;-68
2021/12/21 06:38:15;;;;;;;4.82;2.65;;;;;;;;;;4950971;28;20040;-67
2021/12/21 06:40:41;;;;;;;7.05;2.38;;;;;;;;;;4968768;28;20057;-67
2021/12/21 06:43:12;;;;;;;8.43;3.05;;;;;;;;;;4969064;28;20025;-68
2021/12/21 06:51:11;;;;;;;6.10;3.65;;;;;;;;;;4955044;28;20487;-68
2021/12/21 06:53:37;;;;;;;6.88;3.33;;;;;;;;;;4953866;28;20355;-67
2021/12/21 06:56:04;;;;;;;9.48;3.72;;;;;;;;;;4954565;28;20352;-68
2021/12/21 06:58:29;;;;;;;6.47;3.60;;;;;;;;;;4972733;28;20380;-67
2021/12/21 07:00:55;;;;;;;6.75;3.45;;;;;;;;;;4954767;28;20341;-67
2021/12/21 07:03:21;;;;;;;8.55;3.20;;;;;;;;;;4955143;28;20475;-67
2021/12/21 07:05:50;;;;;;;7.15;3.35;;;;;;;;;;4954882;28;20151;-67
2021/12/21 07:08:21;;;;;;;5.75;3.55;;;;;;;;;;4972614;28;20029;-67
2021/12/21 07:11:00;;;;;;;11.63;3.88;;;;;;;;;;4955494;28;20498;-67
2021/12/21 07:18:55;;;;;;;6.78;3.42;;;;;;;;;;4957017;28;20368;-67
2021/12/21 07:21:20;;;;;;;5.60;2.97;;;;;;;;;;4971970;28;20065;-67
2021/12/21 07:23:46;;;;;;;7.85;3.60;;;;;;;;;;4973593;28;20309;-67
2021/12/21 07:26:11;;;;;;;6.28;3.42;;;;;;;;;;4954304;28;20344;-67
2021/12/21 07:28:36;;;;;;;7.28;3.30;;;;;;;;;;4954391;28;20395;-67
2021/12/21 07:31:02;;;;;;;5.65;2.83;;;;;;;;;;4973529;28;20444;-67
2021/12/21 07:33:28;;;;;;;4.60;2.85;;;;;;;;;;4972409;28;20425;-68
2021/12/21 07:35:53;;;;;;;7.40;3.33;;;;;;;;;;4972861;28;20528;-67
2021/12/21 07:38:19;;;;;;;7.07;3.50;;;;;;;;;;4971412;28;20428;-66
2021/12/21 07:40:45;;;;;;;7.38;3.08;;;;;;;;;;4955962;28;20480;-67
2021/12/21 07:43:10;;;;;;;7.18;3.72;;;;;;;;;;4952080;28;20500;-67
2021/12/21 07:45:36;;;;;;;6.50;3.47;;;;;;;;;;4952734;28;20499;-67
2021/12/21 07:48:01;;;;;;;6.18;3.25;;;;;;;;;;4952305;28;20322;-67
2021/12/21 07:50:27;;;;;;;5.30;2.97;;;;;;;;;;4952415;28;20388;-67
2021/12/21 07:52:54;;;;;;;6.50;3.20;;;;;;;;;;4951425;28;20021;-67
2021/12/21 07:55:20;;;;;;;10.80;3.42;;;;;;;;;;4951402;28;20413;-67
2021/12/21 07:57:46;;;;;;;8.05;3.85;;;;;;;;;;4950146;28;20336;-67
2021/12/21 08:00:12;;;;;;;8.27;3.10;;;;;;;;;;4950734;28;20340;-68
2021/12/21 08:02:39;;;;;;;7.85;3.80;;;;;;;;;;4952065;28;20485;-67
2021/12/21 08:05:07;;;;;;;8.80;4.10;;;;;;;;;;4950103;28;20432;-67
2021/12/21 08:07:37;;;;;;;10.02;4.22;;;;;;;;;;4951676;28;20052;-67
2021/12/21 08:10:18;;;;;;;8.23;3.60;;;;;;;;;;4951667;28;20536;-67
2021/12/21 08:12:44;;;;;;;9.57;3.67;;;;;;;;;;4951840;28;20421;-67
2021/12/21 08:15:09;;;;;;;9.95;3.80;;;;;;;;;;4950679;28;20396;-68
2021/12/21 08:17:34;;;;;;;7.82;3.70;;;;;;;;;;4953399;28;20057;-67
2021/12/21 08:20:00;;;;;;;9.18;4.60;;;;;;;;;;4951504;28;20353;-67
2021/12/21 08:22:25;;;;;;;7.63;4.45;;;;;;;;;;4950058;28;20441;-67
2021/12/21 08:24:50;;;;;;;8.52;4.35;;;;;;;;;;4951586;28;20344;-68
2021/12/21 08:27:16;;;;;;;12.75;4.55;;;;;;;;;;4950203;28;20038;-67
2021/12/21 08:29:41;;;;;;;6.00;3.38;;;;;;;;;;4952411;28;20112;-69
2021/12/21 08:32:07;;;;;;;9.48;4.20;;;;;;;;;;4951510;28;20440;-67
2021/12/21 08:34:32;;;;;;;8.20;3.55;;;;;;;;;;4949872;28;20026;-66
2021/12/21 08:36:57;;;;;;;6.20;3.17;;;;;;;;;;4949836;28;20026;-68
2021/12/21 08:39:24;;;;;;;14.30;3.45;;;;;;;;;;4951308;28;20025;-67
2021/12/21 08:41:55;;;;;;;6.03;3.33;;;;;;;;;;4965742;28;20419;-67
2021/12/21 08:44:22;;;;;;;8.68;3.47;;;;;;;;;;4949668;28;20596;-68
2021/12/21 08:46:48;;;;;;;8.07;3.85;;;;;;;;;;4949464;28;20388;-67
2021/12/21 08:49:13;;;;;;;11.43;4.28;;;;;;;;;;4952283;28;20029;-67
2021/12/21 08:51:38;;;;;;;9.57;4.82;;;;;;;;;;4951611;28;20029;-68
2021/12/21 08:54:04;;;;;;;11.77;4.68;;;;;;;;;;4951003;28;20368;-67
2021/12/21 08:56:29;;;;;;;12.38;4.75;;;;;;;;;;4950842;28;20389;-67
2021/12/21 08:58:54;;;;;;;11.35;4.05;;;;;;;;;;4951251;28;20334;-67
2021/12/21 09:01:20;;;;;;;9.70;3.97;;;;;;;;;;4950950;28;20326;-68
2021/12/21 09:03:45;;;;;;;21.15;5.18;;;;;;;;;;4951018;28;20433;-67
2021/12/21 09:06:11;;;;;;;15.68;5.75;;;;;;;;;;4950868;28;20062;-67
2021/12/21 09:08:36;;;;;;;12.63;4.53;;;;;;;;;;4950299;28;20488;-67
2021/12/21 09:11:05;;;;;;;12.20;4.63;;;;;;;;;;4950385;28;20421;-70
2021/12/21 09:13:32;;;;;;;8.57;3.70;;;;;;;;;;4952502;28;20460;-67
2021/12/21 09:15:57;;;;;;;10.93;4.90;;;;;;;;;;4949027;28;20515;-67
2021/12/21 09:18:23;;;;;;;8.25;3.60;;;;;;;;;;4948993;28;20481;-67
2021/12/21 09:20:48;;;;;;;10.52;4.30;;;;;;;;;;4949158;28;20412;-67
2021/12/21 09:23:14;;;;;;;11.07;4.00;;;;;;;;;;4950360;28;20341;-67
2021/12/21 09:25:39;;;;;;;11.63;4.93;;;;;;;;;;4965562;28;20364;-67
2021/12/21 09:28:05;;;;;;;10.35;5.20;;;;;;;;;;4949834;28;20104;-67
2021/12/21 09:30:30;;;;;;;9.30;4.45;;;;;;;;;;4947907;28;20132;-67
2021/12/21 09:32:57;;;;;;;10.13;4.80;;;;;;;;;;4950791;28;20440;-67
2021/12/21 09:35:23;;;;;;;8.98;4.50;;;;;;;;;;4951593;28;20100;-69
2021/12/21 09:37:54;;;;;;;12.55;4.78;;;;;;;;;;4948658;28;20433;-67
2021/12/21 09:40:23;;;;;;;11.82;3.75;;;;;;;;;;4949990;28;20516;-68
2021/12/21 09:42:49;;;;;;;12.73;4.18;;;;;;;;;;4948459;28;20029;-67
2021/12/21 09:45:15;;;;;;;10.95;4.38;;;;;;;;;;4949548;28;20361;-67
2021/12/21 09:47:44;;;;;;;8.68;4.18;;;;;;;;;;4948995;28;20445;-67
2021/12/21 09:50:12;;;;;;;9.25;4.50;;;;;;;;;;4948668;28;20333;-67
2021/12/21 09:52:38;;;;;;;11.87;4.80;;;;;;;;;;4948590;28;20389;-68
2021/12/21 09:55:06;;;;;;;9.07;3.88;;;;;;;;;;4931975;28;20643;-67
2021/12/21 09:57:32;;;;;;;12.02;5.15;;;;;;;;;;4950952;28;20499;-67
2021/12/21 09:59:57;;;;;;;10.70;4.18;;;;;;;;;;4950132;28;20452;-67
2021/12/21 10:02:26;;;;;;;9.77;3.97;;;;;;;;;;4950122;28;20095;-68
2021/12/21 10:04:59;;;;;;;11.07;4.20;;;;;;;;;;4951460;28;20318;-70
2021/12/21 10:07:25;;;;;;;9.75;3.90;;;;;;;;;;4949557;28;20423;-67
2021/12/21 10:10:11;;;;;;;12.35;4.57;;;;;;;;;;4964935;28;20416;-67
2021/12/21 10:12:42;;;;;;;16.70;4.18;;;;;;;;;;4949505;28;20417;-67
2021/12/21 10:15:12;;;;;;;16.58;6.53;;;;;;;;;;4950029;28;20049;-67
2021/12/21 10:17:47;;;;;;;7.95;4.28;;;;;;;;;;4948824;28;20738;-67
2021/12/21 10:20:13;;;;;;;10.32;4.40;;;;;;;;;;4949906;28;20141;-67
2021/12/21 10:22:48;;;;;;;9.80;4.63;;;;;;;;;;4951485;28;20038;-67
2021/12/21 10:25:14;;;;;;;19.55;6.22;;;;;;;;;;4948733;28;20322;-67
2021/12/21 10:27:44;;;;;;;9.30;4.25;;;;;;;;;;4964732;28;20178;-67
2021/12/21 10:30:10;;;;;;;12.13;4.40;;;;;;;;;;4950013;28;20518;-67
2021/12/21 10:32:35;;;;;;;10.23;4.43;;;;;;;;;;4952965;28;20438;-68
2021/12/21 10:35:03;;;;;;;11.75;4.57;;;;;;;;;;4952074;28;20432;-67
2021/12/21 10:37:32;;;;;;;13.55;4.28;;;;;;;;;;4954077;28;20380;-67
2021/12/21 10:40:05;;;;;;;12.02;4.57;;;;;;;;;;4952698;28;20400;-67
2021/12/21 10:42:30;;;;;;;11.88;4.35;;;;;;;;;;4954119;28;20377;-67
2021/12/21 10:45:05;;;;;;;15.30;4.65;;;;;;;;;;4952713;28;20100;-67
2021/12/21 10:47:33;;;;;;;8.52;3.63;;;;;;;;;;4953873;28;20468;-67
2021/12/21 10:49:58;;;;;;;8.38;3.80;;;;;;;;;;4953385;28;20515;-67
2021/12/21 10:52:23;;;;;;;9.75;4.30;;;;;;;;;;4953254;28;20444;-67
2021/12/21 10:54:50;;;;;;;8.88;4.00;;;;;;;;;;4951849;28;20349;-68
2021/12/21 10:57:29;;;;;;;8.27;3.50;;;;;;;;;;4952018;28;20128;-68
2021/12/21 10:59:58;;;;;;;11.18;3.58;;;;;;;;;;4952107;28;20444;-67
2021/12/21 11:02:29;;;;;;;10.55;4.70;;;;;;;;;;4953978;28;20339;-68
2021/12/21 11:05:16;;;;;;;8.82;3.38;;;;;;;;;;4953364;28;20333;-67
2021/12/21 11:07:51;;;;;;;10.55;3.67;;;;;;;;;;4953079;28;20360;-67
2021/12/21 11:10:27;;;;;;;10.40;4.10;;;;;;;;;;4952075;28;20432;-67
2021/12/21 11:12:57;;;;;;;8.05;3.38;;;;;;;;;;4953545;28;20433;-67
2021/12/21 11:15:31;;;;;;;8.73;3.55;;;;;;;;;;4951713;28;20372;-68
2021/12/21 11:17:58;;;;;;;8.70;3.33;;;;;;;;;;4954383;28;20401;-68
2021/12/21 11:20:24;;;;;;;10.48;3.67;;;;;;;;;;4951235;28;20022;-68
2021/12/21 11:22:50;;;;;;;5.80;3.35;;;;;;;;;;4953206;28;20052;-67
2021/12/21 11:25:16;;;;;;;8.45;3.88;;;;;;;;;;4953108;28;20322;-68
2021/12/21 11:27:42;;;;;;;7.72;3.22;;;;;;;;;;4952474;28;20388;-67
2021/12/21 11:30:13;;;;;;;9.55;3.55;;;;;;;;;;4952932;28;20350;-67
2021/12/21 11:32:44;;;;;;;8.07;3.38;;;;;;;;;;4952784;28;20116;-67
2021/12/21 11:37:42;;;;;;;8.88;3.55;;;;;;;;;;4952832;28;20625;-67
2021/12/21 11:40:09;;;;;;;6.38;3.75;;;;;;;;;;4951017;28;20568;-67
2021/12/21 11:42:51;;;;;;;7.47;3.10;;;;;;;;;;4951215;28;20053;-67
2021/12/21 11:45:41;;;;;;;8.15;3.30;;;;;;;;;;4951698;28;20453;-67
2021/12/21 11:48:09;;;;;;;7.50;3.47;;;;;;;;;;4951674;28;20134;-68
2021/12/21 11:50:36;;;;;;;7.70;3.40;;;;;;;;;;4952587;28;20352;-68
2021/12/21 11:53:04;;;;;;;8.13;3.45;;;;;;;;;;4952167;28;20382;-67
2021/12/21 11:55:31;;;;;;;7.38;4.05;;;;;;;;;;4950987;28;20425;-67
2021/12/21 11:58:12;;;;;;;9.40;3.65;;;;;;;;;;4951308;28;20433;-67
2021/12/21 12:00:38;;;;;;;11.63;4.30;;;;;;;;;;4952205;28;20413;-67
2021/12/21 12:03:18;;;;;;;8.65;4.10;;;;;;;;;;4950410;28;20380;-67
2021/12/21 12:05:55;;;;;;;9.50;3.83;;;;;;;;;;4953331;28;20305;-67
2021/12/21 12:08:21;;;;;;;8.90;4.13;;;;;;;;;;4952129;28;20512;-68
2021/12/21 12:10:58;;;;;;;6.13;3.28;;;;;;;;;;4951614;28;20457;-67
2021/12/21 12:13:33;;;;;;;6.93;3.40;;;;;;;;;;4950632;28;20465;-67
2021/12/21 12:16:09;;;;;;;9.25;3.53;;;;;;;;;;4952647;28;20428;-67
2021/12/21 12:18:48;;;;;;;11.52;4.40;;;;;;;;;;4950525;28;20357;-67
2021/12/21 12:21:15;;;;;;;;;;;;;;;;;;4950982;28;20457;-67
2021/12/21 12:23:55;;;;;;;8.18;3.50;;;;;;;;;;4951689;28;19914;-67
2021/12/21 12:26:30;;;;;;;6.40;3.13;;;;;;;;;;4951962;28;20178;-68
2021/12/21 12:29:10;;;;;;;11.43;3.25;;;;;;;;;;4951620;28;20392;-67
2021/12/21 12:31:37;;;;;;;7.85;3.80;;;;;;;;;;4950055;28;20436;-67
2021/12/21 12:34:03;;;;;;;8.27;3.35;;;;;;;;;;4951331;28;20034;-67
2021/12/21 12:36:51;;;;;;;10.68;3.72;;;;;;;;;;4934683;28;20377;-67
2021/12/21 12:39:43;;;;;;;11.88;4.00;;;;;;;;;;4951182;28;20465;-67
2021/12/21 12:42:10;;;;;;;9.10;3.40;;;;;;;;;;4951104;28;20413;-67
2021/12/21 12:44:38;;;;;;;7.78;3.88;;;;;;;;;;4950762;28;20049;-67
2021/12/21 12:47:06;;;;;;;6.35;3.30;;;;;;;;;;4949444;28;20104;-67
2021/12/21 12:49:35;;;;;;;6.10;2.95;;;;;;;;;;4951452;28;20346;-67
2021/12/21 12:52:14;;;;;;;;;;;;;;;;;;4951322;28;20413;-67
2021/12/21 12:54:52;;;;;;;8.30;3.75;;;;;;;;;;4951389;28;20304;-67
2021/12/21 12:57:54;;;;;;;8.23;2.63;;;;;;;;;;4951237;28;20461;-68
2021/12/21 13:00:24;;;;;;;7.38;2.90;;;;;;;;;;4937636;28;20457;-67
2021/12/21 13:02:58;;;;;;;8.80;3.78;;;;;;;;;;4951472;28;20041;-67
2021/12/21 13:05:27;;;;;;;9.63;3.70;;;;;;;;;;4949689;28;20488;-67
2021/12/21 13:07:52;;;;;;;8.07;3.03;;;;;;;;;;4950767;28;20503;-67
2021/12/21 13:10:21;;;;;;;8.40;3.92;;;;;;;;;;4952395;28;20314;-67
2021/12/21 13:12:54;;;;;;;8.38;4.20;;;;;;;;;;4950185;28;20429;-67
2021/12/21 13:15:31;;;;;;;7.55;3.58;;;;;;;;;;4949621;28;20518;-68
2021/12/21 13:18:17;;;;;;;9.27;3.40;;;;;;;;;;4949303;28;20329;-68
2021/12/21 13:20:44;;;;;;;10.50;4.30;;;;;;;;;;4950341;28;20610;-68
2021/12/21 13:23:18;;;;;;;12.35;4.45;;;;;;;;;;4949139;28;20112;-68
2021/12/21 13:26:02;;;;;;;8.45;3.67;;;;;;;;;;4950233;28;20400;-67
2021/12/21 13:28:36;;;;;;;9.13;3.75;;;;;;;;;;4950827;28;20357;-67
2021/12/21 13:31:06;;;;;;;9.05;4.07;;;;;;;;;;4951095;28;20356;-67
2021/12/21 13:33:32;;;;;;;7.47;3.90;;;;;;;;;;4949046;28;20451;-67
2021/12/21 13:35:59;;;;;;;7.13;3.83;;;;;;;;;;4950414;28;20365;-67
2021/12/21 13:38:27;;;;;;;7.38;3.90;;;;;;;;;;4932613;28;20382;-67
2021/12/21 13:41:01;;;;;;;10.07;4.53;;;;;;;;;;4949016;28;20368;-67
2021/12/21 13:43:27;;;;;;;9.13;4.15;;;;;;;;;;4950719;28;20448;-67
2021/12/21 13:46:00;;;;;;;11.55;4.65;;;;;;;;;;4949809;28;20492;-67
2021/12/21 13:48:27;;;;;;;6.55;4.00;;;;;;;;;;4950644;28;20488;-67
2021/12/21 13:50:52;;;;;;;28.13;10.98;;;;;;;;;;4965289;28;20353;-67
2021/12/21 13:53:19;;;;;;;25.65;10.00;;;;;;;;;;4949776;28;20353;-67
2021/12/21 13:55:44;;;;;;;18.05;7.38;;;;;;;;;;4950009;28;20440;-67
2021/12/21 13:58:11;;;;;;;19.58;7.55;;;;;;;;;;4949069;28;20314;-67
2021/12/21 14:00:39;;;;;;;24.25;8.93;;;;;;;;;;4948395;28;20057;-67
2021/12/21 14:03:20;;;;;;;20.08;8.73;;;;;;;;;;4950288;28;20332;-67
2021/12/21 14:05:56;;;;;;;22.63;8.30;;;;;;;;;;4947858;28;20026;-67
2021/12/21 14:08:22;;;;;;;18.15;7.47;;;;;;;;;;4950439;28;20347;-67
2021/12/21 14:10:50;;;;;;;24.45;8.38;;;;;;;;;;4948724;28;20380;-68
2021/12/21 14:13:17;;;;;;;21.02;8.27;;;;;;;;;;4950444;28;20468;-67
2021/12/21 14:15:45;;;;;;;40.70;15.15;;;;;;;;;;4949969;28;20594;-67
2021/12/21 14:18:13;;;;;;;52.20;14.05;;;;;;;;;;4948158;28;20413;-67
2021/12/21 14:20:38;;;;;;;38.65;13.43;;;;;;;;;;4949909;28;20322;-68
2021/12/21 14:23:03;;;;;;;61.50;16.98;;;;;;;;;;4949833;28;20158;-67
2021/12/21 14:25:29;;;;;;;35.13;13.73;;;;;;;;;;4950318;28;20361;-67
2021/12/21 14:27:54;;;;;;;61.38;18.90;;;;;;;;;;4949336;28;20435;-68
2021/12/21 14:30:20;;;;;;;55.95;16.98;;;;;;;;;;4949793;28;20053;-67
2021/12/21 14:33:07;;;;;;;38.65;13.52;;;;;;;;;;4947898;28;20516;-67
2021/12/21 14:35:34;;;;;;;47.83;15.45;;;;;;;;;;4950632;28;20332;-67
2021/12/21 14:38:16;;;;;;;34.45;12.48;;;;;;;;;;4948704;28;20356;-67
2021/12/21 14:40:51;;;;;;;36.83;12.45;;;;;;;;;;4949830;28;20448;-67
2021/12/21 14:43:20;;;;;;;43.47;13.07;;;;;;;;;;4949727;28;20487;-67
2021/12/21 14:45:47;;;;;;;35.83;12.13;;;;;;;;;;4949355;28;20076;-69
2021/12/21 14:48:17;;;;;;;32.15;11.18;;;;;;;;;;4948710;28;20512;-67
2021/12/21 14:50:47;;;;;;;29.92;11.25;;;;;;;;;;4950751;28;20372;-67
2021/12/21 14:53:20;;;;;;;29.48;9.60;;;;;;;;;;4948696;28;20117;-67
2021/12/21 14:55:45;;;;;;;28.92;10.38;;;;;;;;;;4949765;28;20449;-67
2021/12/21 14:58:16;;;;;;;27.60;10.80;;;;;;;;;;4949557;28;20476;-68
2021/12/21 15:00:49;;;;;;;44.38;13.05;;;;;;;;;;4949576;28;20030;-67
2021/12/21 15:03:17;;;;;;;43.63;13.90;;;;;;;;;;4947759;28;20314;-67
2021/12/21 15:05:43;;;;;;;40.67;13.65;;;;;;;;;;4949764;28;20030;-67
2021/12/21 15:08:11;;;;;;;38.35;12.43;;;;;;;;;;4947919;28;20076;-67
2021/12/21 15:10:39;;;;;;;26.65;12.27;;;;;;;;;;4949726;28;20524;-68
2021/12/21 15:13:06;;;;;;;41.33;13.82;;;;;;;;;;4948208;28;20462;-66
2021/12/21 15:15:32;;;;;;;43.65;15.40;;;;;;;;;;4949732;28;20433;-68
2021/12/21 15:17:58;;;;;;;50.30;17.35;;;;;;;;;;4951638;28;20475;-68
2021/12/21 15:20:25;;;;;;;35.38;13.13;;;;;;;;;;4952959;28;20472;-68
2021/12/21 15:22:51;;;;;;;70.57;22.73;;;;;;;;;;4954397;28;20337;-68
2021/12/21 15:25:17;;;;;;;43.40;16.27;;;;;;;;;;4951587;28;20397;-67
2021/12/21 15:27:44;;;;;;;51.33;19.83;;;;;;;;;;4952448;28;20330;-66
2021/12/21 15:30:14;;;;;;;55.90;19.58;;;;;;;;;;4952716;28;20456;-67
2021/12/21 15:32:40;;;;;;;56.58;19.17;;;;;;;;;;4953960;28;20428;-67